Time;durP1;ratioP1;P1;durP2;ratioP2;P2;SDS_P1;SDS_P2;PMS_P1;PMS_P2;Temp;Humidity;BMP_temperature;BMP_pressure;BME280_temperature;BME280_humidity;BME280_pressure;Samples;Min_cycle;Max_cycle;Signal;HPM_P1;HPM_P2
2023/03/20 00:01:20;;;;;;;7.10;6.50;;;;;;;8.81;100.00;96897.78;5075559;28;20185;-76
2023/03/20 00:03:46;;;;;;;6.90;6.30;;;;;;;8.75;100.00;96896.81;5075048;28;20543;-76
2023/03/20 00:06:22;;;;;;;7.20;6.50;;;;;;;8.78;100.00;96895.59;5081129;28;20181;-76
2023/03/20 00:08:51;;;;;;;7.10;6.60;;;;;;;8.77;100.00;96897.41;5075782;28;20193;-76
2023/03/20 00:11:27;;;;;;;7.40;6.70;;;;;;;8.83;100.00;96900.97;5075596;28;20192;-76
2023/03/20 00:13:59;;;;;;;7.10;6.50;;;;;;;8.73;100.00;96908.50;5075275;28;20189;-76
2023/03/20 00:16:30;;;;;;;7.87;6.10;;;;;;;8.67;100.00;96912.75;5087983;28;20177;-76
2023/03/20 00:18:56;;;;;;;6.90;6.30;;;;;;;8.71;100.00;96918.34;5094749;28;20180;-76
2023/03/20 00:21:22;;;;;;;6.87;6.27;;;;;;;8.84;100.00;96907.81;5095105;28;20234;-76
2023/03/20 00:23:48;;;;;;;7.13;6.53;;;;;;;8.87;100.00;96907.38;5095219;28;20188;-76
2023/03/20 00:26:17;;;;;;;7.10;6.50;;;;;;;8.76;100.00;96903.63;5067459;28;20255;-76
2023/03/20 00:28:47;;;;;;;6.70;6.20;;;;;;;8.75;100.00;96912.47;5095182;28;20199;-76
2023/03/20 00:31:24;;;;;;;6.70;6.17;;;;;;;8.77;100.00;96905.25;5094874;28;20185;-79
2023/03/20 00:33:49;;;;;;;6.67;6.07;;;;;;;8.71;100.00;96910.50;5086472;28;20196;-76
2023/03/20 00:36:15;;;;;;;6.53;6.03;;;;;;;8.73;100.00;96911.09;5085459;28;20613;-76
2023/03/20 00:38:40;;;;;;;6.80;6.20;;;;;;;8.67;100.00;96917.19;5094898;28;20356;-76
2023/03/20 00:41:34;;;;;;;8.30;6.23;;;;;;;8.62;100.00;96911.78;5084905;28;20585;-76
2023/03/20 00:44:03;;;;;;;7.40;6.70;;;;;;;8.65;100.00;96911.34;5058967;28;20189;-76
2023/03/20 00:46:32;;;;;;;7.57;6.97;;;;;;;8.65;100.00;96912.16;5075358;28;20668;-76
2023/03/20 00:48:58;;;;;;;7.20;6.70;;;;;;;8.65;100.00;96912.16;5074747;28;20855;-76
2023/03/20 00:51:23;;;;;;;7.13;6.43;;;;;;;8.70;100.00;96917.53;5074973;28;20185;-76
2023/03/20 00:53:48;;;;;;;7.30;6.80;;;;;;;8.55;100.00;96921.47;5074480;28;20185;-76
2023/03/20 00:56:35;;;;;;;8.03;7.33;;;;;;;8.57;100.00;96920.25;5080580;28;20188;-76
2023/03/20 00:59:02;;;;;;;6.33;5.77;;;;;;;8.59;100.00;96914.81;5094906;28;20263;-76
2023/03/20 01:01:30;;;;;;;6.60;6.03;;;;;;;8.59;100.00;96914.81;5076473;28;20208;-76
2023/03/20 01:03:55;;;;;;;6.33;5.93;;;;;;;8.54;100.00;96917.25;5073891;28;20186;-76
2023/03/20 01:06:21;;;;;;;6.00;5.60;;;;;;;8.58;100.00;96921.84;5082953;28;20515;-77
2023/03/20 01:08:47;;;;;;;6.10;5.30;;;;;;;8.55;100.00;96916.25;5094299;28;20176;-76
2023/03/20 01:11:22;;;;;;;6.10;5.70;;;;;;;8.51;100.00;96917.69;5094030;28;20541;-76
2023/03/20 01:13:48;;;;;;;5.93;5.43;;;;;;;8.45;100.00;96918.50;5077321;28;20257;-76
2023/03/20 01:16:22;;;;;;;5.70;5.30;;;;;;;8.58;100.00;96913.22;5087175;28;20279;-76
2023/03/20 01:18:49;;;;;;;5.90;5.40;;;;;;;8.46;100.00;96913.09;5074500;28;20234;-76
2023/03/20 01:21:14;;;;;;;5.50;5.10;;;;;;;8.39;100.00;96912.31;5056030;28;20189;-76
2023/03/20 01:23:40;;;;;;;6.03;5.43;;;;;;;8.52;100.00;96912.25;5073860;28;20256;-76
2023/03/20 01:26:20;;;;;;;6.03;5.43;;;;;;;8.43;100.00;96923.13;5079427;28;20689;-76
2023/03/20 01:28:46;;;;;;;5.40;5.00;;;;;;;8.55;100.00;96914.44;5092461;28;20176;-76
2023/03/20 01:31:13;;;;;;;4.90;4.57;;;;;;;8.46;100.00;96915.69;5093811;28;20181;-76
2023/03/20 01:33:38;;;;;;;5.10;4.80;;;;;;;8.38;100.00;96921.16;5093547;28;20184;-76
2023/03/20 01:36:03;;;;;;;5.60;5.20;;;;;;;8.44;100.00;96922.94;5088913;28;20688;-76
2023/03/20 01:38:29;;;;;;;4.80;4.53;;;;;;;8.43;100.00;96908.28;5073634;28;20209;-76
2023/03/20 01:41:15;;;;;;;5.03;4.73;;;;;;;8.42;100.00;96913.69;5055472;28;20185;-76
2023/03/20 01:43:42;;;;;;;5.30;4.90;;;;;;;8.35;100.00;96921.59;5073317;28;20629;-76
2023/03/20 01:46:10;;;;;;;5.90;5.50;;;;;;;8.40;100.00;96915.72;5072188;28;20173;-77
2023/03/20 01:48:56;;;;;;;5.60;5.20;;;;;;;8.39;100.00;96914.13;5072748;28;20182;-76
2023/03/20 01:51:27;;;;;;;5.50;5.20;;;;;;;8.34;100.00;96918.19;5073300;28;20533;-76
2023/03/20 01:53:55;;;;;;;5.83;5.47;;;;;;;8.46;100.00;96914.91;5073034;28;20181;-76
2023/03/20 01:56:20;;;;;;;6.67;6.23;;;;;;;8.42;100.00;96911.09;5073303;28;20209;-76
2023/03/20 01:58:55;;;;;;;5.73;5.33;;;;;;;8.46;100.00;96910.47;5071658;28;20205;-77
2023/03/20 02:01:23;;;;;;;6.03;5.63;;;;;;;8.45;100.00;96910.69;5073457;28;20169;-76
2023/03/20 02:03:49;;;;;;;5.70;5.40;;;;;;;8.44;100.00;96915.09;5055274;28;20320;-74
2023/03/20 02:06:15;;;;;;;5.30;5.00;;;;;;;8.48;100.00;96921.50;5073450;28;20193;-74
2023/03/20 02:08:45;;;;;;;5.30;5.00;;;;;;;8.40;100.00;96913.94;5073057;28;20178;-74
2023/03/20 02:11:12;;;;;;;4.50;4.30;;;;;;;8.37;100.00;96924.78;5073152;28;20252;-74
2023/03/20 02:13:39;;;;;;;4.00;3.80;;;;;;;8.39;100.00;96932.41;5073203;28;20192;-74
2023/03/20 02:16:15;;;;;;;4.00;3.80;;;;;;;8.41;100.00;96936.44;5073047;28;20189;-74
2023/03/20 02:18:44;;;;;;;4.33;3.97;;;;;;;8.49;100.00;96936.16;5089260;28;20690;-74
2023/03/20 02:21:27;;;;;;;3.97;3.67;;;;;;;8.39;100.00;96946.28;5073215;28;20185;-74
2023/03/20 02:24:14;;;;;;;4.27;3.93;;;;;;;8.53;100.00;96944.38;5074457;28;20178;-77
2023/03/20 02:26:53;;;;;;;3.93;3.73;;;;;;;8.52;100.00;96948.03;5075297;28;20587;-74
2023/03/20 02:29:36;;;;;;;3.93;3.73;;;;;;;8.44;100.00;96946.44;5093214;28;20185;-74
2023/03/20 02:32:24;;;;;;;3.97;3.77;;;;;;;8.38;100.00;96944.66;5084667;28;20582;-75
2023/03/20 02:34:52;;;;;;;3.93;3.73;;;;;;;8.48;100.00;96947.63;5074554;28;20189;-74
2023/03/20 02:37:53;;;;;;;4.10;3.90;;;;;;;8.48;100.00;96950.22;5072044;28;20651;-73
2023/03/20 02:40:23;;;;;;;3.90;3.70;;;;;;;8.48;100.00;96947.63;5081246;28;20181;-74
2023/03/20 02:43:01;;;;;;;3.47;3.27;;;;;;;8.34;100.00;96954.72;5092826;28;20199;-75
2023/03/20 02:46:05;;;;;;;4.03;3.83;;;;;;;8.32;100.00;96945.50;5073505;28;20195;-74
2023/03/20 02:48:31;;;;;;;3.30;3.10;;;;;;;8.45;100.00;96940.22;5038280;28;20204;-74
2023/03/20 02:51:16;;;;;;;3.83;3.73;;;;;;;8.41;100.00;96943.47;5073213;28;20260;-75
2023/03/20 02:53:50;;;;;;;3.67;3.50;;;;;;;8.34;100.00;96940.88;5059643;28;20521;-74
2023/03/20 02:56:31;;;;;;;3.60;3.50;;;;;;;8.37;100.00;96937.84;5092640;28;20184;-74
2023/03/20 02:59:32;;;;;;;3.27;3.17;;;;;;;8.33;100.00;96950.50;5076770;28;20182;-74
2023/03/20 03:02:01;;;;;;;3.33;3.03;;;;;;;8.39;100.00;96945.47;5064633;28;20198;-73
2023/03/20 03:04:31;;;;;;;3.20;3.10;;;;;;;8.33;100.00;96945.28;5087173;28;20231;-74
2023/03/20 03:06:58;;;;;;;3.20;3.10;;;;;;;8.26;100.00;96944.47;5092202;28;20634;-74
2023/03/20 03:09:34;;;;;;;3.70;3.50;;;;;;;8.32;100.00;96942.88;5090346;28;20551;-74
2023/03/20 03:12:14;;;;;;;2.90;2.80;;;;;;;8.29;100.00;96954.53;5092703;28;20259;-75
2023/03/20 03:14:47;;;;;;;3.73;3.30;;;;;;;8.36;100.00;96956.34;5092742;28;20177;-74
2023/03/20 03:17:14;;;;;;;3.23;3.13;;;;;;;8.34;100.00;96944.28;5092581;28;20196;-74
2023/03/20 03:19:43;;;;;;;3.97;3.87;;;;;;;8.33;100.00;96942.69;5073110;28;20230;-74
2023/03/20 03:22:08;;;;;;;3.90;3.70;;;;;;;8.29;100.00;96948.50;5076283;28;20247;-75
2023/03/20 03:24:37;;;;;;;3.30;3.20;;;;;;;8.39;100.00;96948.06;5076102;28;20181;-74
2023/03/20 03:27:12;;;;;;;4.77;4.57;;;;;;;8.38;100.00;96954.31;5077279;28;20323;-74
2023/03/20 03:29:39;;;;;;;5.90;5.60;;;;;;;8.36;100.00;96956.34;5077666;28;20253;-74
2023/03/20 03:32:06;;;;;;;6.50;6.23;;;;;;;8.25;100.00;96961.16;5096480;28;20189;-74
2023/03/20 03:34:34;;;;;;;5.53;5.33;;;;;;;8.32;100.00;96961.97;5065846;28;20684;-75
2023/03/20 03:37:13;;;;;;;6.83;6.53;;;;;;;8.32;100.00;96967.19;5074928;28;20209;-74
2023/03/20 03:39:50;;;;;;;5.83;5.50;;;;;;;8.25;100.00;96966.38;5076061;28;20181;-74
2023/03/20 03:42:26;;;;;;;7.50;7.20;;;;;;;8.44;100.00;96969.94;5075985;28;20251;-74
2023/03/20 03:45:01;;;;;;;7.27;6.97;;;;;;;8.34;100.00;96977.44;5089662;28;20184;-74
2023/03/20 03:47:32;;;;;;;5.40;5.10;;;;;;;8.31;100.00;96975.22;5091387;28;20177;-74
2023/03/20 03:50:20;;;;;;;5.60;5.40;;;;;;;8.28;100.00;96979.03;5075823;28;20177;-74
2023/03/20 03:52:49;;;;;;;5.70;5.50;;;;;;;8.33;100.00;96981.03;5075446;28;20212;-74
2023/03/20 03:55:23;;;;;;;6.10;5.90;;;;;;;8.30;100.00;96984.88;5075364;28;20181;-75
2023/03/20 03:57:55;;;;;;;6.80;6.50;;;;;;;8.31;100.00;96983.84;5075915;28;20668;-75
2023/03/20 04:00:24;;;;;;;7.00;6.70;;;;;;;8.31;100.00;96981.25;5095959;28;20177;-74
2023/03/20 04:02:53;;;;;;;7.03;6.70;;;;;;;8.30;100.00;96981.47;5081375;28;20189;-74
2023/03/20 04:05:20;;;;;;;6.93;6.63;;;;;;;8.26;100.00;96975.81;5075639;28;20193;-74
2023/03/20 04:07:47;;;;;;;7.53;7.23;;;;;;;8.21;100.00;96983.47;5079942;28;20192;-74
2023/03/20 04:10:13;;;;;;;6.60;6.30;;;;;;;8.28;100.00;96986.88;5095060;28;20658;-74
2023/03/20 04:12:41;;;;;;;6.13;5.83;;;;;;;8.26;100.00;96985.44;5095343;28;20223;-74
2023/03/20 04:15:07;;;;;;;6.23;5.93;;;;;;;8.27;100.00;96987.88;5095445;28;20199;-74
2023/03/20 04:17:33;;;;;;;7.00;6.70;;;;;;;8.33;100.00;96984.47;5088789;28;20201;-74
2023/03/20 04:19:59;;;;;;;7.40;7.10;;;;;;;8.33;100.00;96991.50;5075350;28;20268;-74
2023/03/20 04:22:24;;;;;;;6.47;6.17;;;;;;;8.20;100.00;96989.69;5075310;28;20231;-74
2023/03/20 04:24:50;;;;;;;5.43;5.23;;;;;;;8.24;100.00;96992.72;5074770;28;20185;-75
2023/03/20 04:27:16;;;;;;;5.13;4.93;;;;;;;8.19;100.00;96992.53;5078117;28;20231;-75
2023/03/20 04:29:42;;;;;;;5.07;4.87;;;;;;;8.30;100.00;96997.16;5094948;28;20187;-74
2023/03/20 04:32:07;;;;;;;5.13;4.93;;;;;;;8.22;100.00;96985.06;5094963;28;20207;-74
2023/03/20 04:34:32;;;;;;;5.57;5.37;;;;;;;8.15;100.00;96986.09;5078682;28;20634;-74
2023/03/20 04:37:00;;;;;;;5.60;5.40;;;;;;;8.18;100.00;96980.47;5076394;28;20266;-74
2023/03/20 04:39:25;;;;;;;6.87;6.57;;;;;;;8.24;100.00;96983.06;5094726;28;20209;-74
2023/03/20 04:41:51;;;;;;;6.90;6.60;;;;;;;8.19;100.00;96976.88;5095092;28;20227;-74
2023/03/20 04:44:16;;;;;;;7.30;7.00;;;;;;;8.20;100.00;96984.47;5076625;28;20201;-74
2023/03/20 04:46:41;;;;;;;6.97;6.67;;;;;;;8.27;100.00;96971.41;5094592;28;20230;-74
2023/03/20 04:49:07;;;;;;;3.93;3.83;;;;;;;8.19;100.00;96976.88;5090992;28;20559;-74
2023/03/20 04:51:32;;;;;;;3.67;3.57;;;;;;;8.31;100.00;96977.84;5060971;28;20212;-73
2023/03/20 04:53:57;;;;;;;3.53;3.33;;;;;;;8.30;100.00;96979.63;5079340;28;20364;-73
2023/03/20 04:56:23;;;;;;;3.47;3.37;;;;;;;8.17;100.00;96984.91;5067369;28;20537;-74
2023/03/20 04:58:48;;;;;;;3.27;3.07;;;;;;;8.08;100.00;96982.72;5087375;28;20551;-73
2023/03/20 05:01:13;;;;;;;3.40;3.30;;;;;;;8.12;100.00;96989.13;5094050;28;20219;-74
2023/03/20 05:03:39;;;;;;;4.07;3.87;;;;;;;8.06;100.00;96987.34;5093960;28;20204;-74
2023/03/20 05:06:05;;;;;;;3.63;3.53;;;;;;;8.12;100.00;96991.75;5094179;28;20207;-74
2023/03/20 05:08:31;;;;;;;3.53;3.43;;;;;;;8.05;100.00;97002.19;5082585;28;20649;-74
2023/03/20 05:10:56;;;;;;;3.70;3.50;;;;;;;8.07;100.00;96999.38;5074228;28;20185;-74
2023/03/20 05:13:21;;;;;;;3.53;3.33;;;;;;;8.05;100.00;97002.19;5073978;28;20548;-78
2023/03/20 05:15:47;;;;;;;3.70;3.50;;;;;;;8.05;100.00;96998.78;5073952;28;20265;-74
2023/03/20 05:18:12;;;;;;;3.90;3.67;;;;;;;8.13;100.00;97006.41;5082334;28;20227;-73
2023/03/20 05:20:38;;;;;;;3.63;3.43;;;;;;;8.11;100.00;97008.41;5082634;28;20192;-73
2023/03/20 05:23:03;;;;;;;3.50;3.30;;;;;;;8.07;100.00;97013.25;5075171;28;20272;-73
2023/03/20 05:25:28;;;;;;;3.77;3.57;;;;;;;8.11;100.00;97019.66;5073785;28;20311;-74
2023/03/20 05:27:54;;;;;;;4.50;4.27;;;;;;;8.12;100.00;97017.84;5060944;28;20212;-73
2023/03/20 05:30:19;;;;;;;6.20;5.90;;;;;;;8.13;100.00;97020.25;5093562;28;20222;-75
2023/03/20 05:32:45;;;;;;;6.70;6.40;;;;;;;8.15;100.00;97017.44;5091254;28;20180;-73
2023/03/20 05:35:11;;;;;;;7.40;7.10;;;;;;;8.17;100.00;97011.00;5073318;28;20272;-73
2023/03/20 05:37:37;;;;;;;8.00;7.70;;;;;;;8.18;100.00;97022.25;5071749;28;20630;-74
2023/03/20 05:40:04;;;;;;;6.47;6.17;;;;;;;8.18;100.00;97017.03;5077123;28;20189;-75
2023/03/20 05:42:30;;;;;;;4.90;4.67;;;;;;;8.24;100.00;97008.38;5080747;28;20181;-74
2023/03/20 05:44:56;;;;;;;5.33;5.13;;;;;;;8.21;100.00;97012.19;5074617;28;20655;-75
2023/03/20 05:47:21;;;;;;;6.07;5.77;;;;;;;8.13;100.00;97002.00;5092740;28;20185;-75
2023/03/20 05:49:46;;;;;;;7.17;6.87;;;;;;;8.15;100.00;97010.41;5074208;28;20177;-75
2023/03/20 05:52:12;;;;;;;6.70;6.30;;;;;;;8.18;100.00;97012.63;5073108;28;20188;-75
2023/03/20 05:54:37;;;;;;;5.73;5.43;;;;;;;8.14;100.00;97011.41;5080050;28;20200;-80
2023/03/20 05:57:02;;;;;;;3.80;3.60;;;;;;;8.18;100.00;97020.44;5084706;28;20205;-76
2023/03/20 05:59:28;;;;;;;3.37;3.20;;;;;;;8.17;100.00;97024.06;5091923;28;20225;-75
2023/03/20 06:01:53;;;;;;;4.27;4.07;;;;;;;8.30;100.00;97031.09;5093236;28;20552;-74
2023/03/20 06:04:18;;;;;;;5.00;4.80;;;;;;;8.27;100.00;97034.06;5093553;28;20225;-75
2023/03/20 06:06:44;;;;;;;6.13;5.80;;;;;;;8.32;100.00;97036.88;5085057;28;20213;-75
2023/03/20 06:09:09;;;;;;;4.00;3.70;;;;;;;8.36;100.00;97039.91;5093106;28;20208;-73
2023/03/20 06:11:34;;;;;;;3.57;3.37;;;;;;;8.34;100.00;97040.91;5092680;28;20230;-75
2023/03/20 06:14:00;;;;;;;3.80;3.60;;;;;;;8.41;100.00;97042.69;5092815;28;20181;-74
2023/03/20 06:16:26;;;;;;;4.17;3.90;;;;;;;8.50;100.00;97046.69;5080483;28;20169;-74
2023/03/20 06:18:51;;;;;;;4.37;4.07;;;;;;;8.49;100.00;97039.84;5092379;28;20224;-74
2023/03/20 06:21:17;;;;;;;23.30;22.00;;;;;;;8.43;100.00;97044.09;5085234;28;20181;-73
2023/03/20 06:23:42;;;;;;;58.40;54.80;;;;;;;8.42;100.00;97050.31;5083306;28;20220;-74
2023/03/20 06:26:07;;;;;;;3.80;3.60;;;;;;;8.44;100.00;97044.88;5075630;28;20221;-73
2023/03/20 06:28:33;;;;;;;3.43;3.33;;;;;;;8.47;100.00;97045.28;5072727;28;20633;-74
2023/03/20 06:30:58;;;;;;;3.93;3.73;;;;;;;8.64;100.00;97045.59;5072736;28;20276;-74
2023/03/20 06:33:24;;;;;;;4.97;4.67;;;;;;;8.69;100.00;97041.34;5072770;28;20264;-73
2023/03/20 06:35:49;;;;;;;3.83;3.63;;;;;;;8.74;100.00;97044.19;5083413;28;20231;-75
2023/03/20 06:38:15;;;;;;;3.33;3.20;;;;;;;8.91;100.00;97036.66;5072097;28;20201;-73
2023/03/20 06:40:41;;;;;;;3.60;3.40;;;;;;;8.93;100.00;97033.81;5079870;28;20267;-73
2023/03/20 06:43:07;;;;;;;3.77;3.57;;;;;;;8.97;100.00;97035.78;5092606;28;20189;-74
2023/03/20 06:45:32;;;;;;;3.17;3.07;;;;;;;8.82;100.00;97037.09;5075245;28;20314;-74
2023/03/20 06:47:58;;;;;;;3.07;2.93;;;;;;;8.97;100.00;97030.56;5090990;28;20189;-73
2023/03/20 06:50:24;;;;;;;3.97;3.77;;;;;;;8.97;100.00;97030.56;5075370;28;20185;-74
2023/03/20 06:52:50;;;;;;;4.07;3.87;;;;;;;8.84;100.00;97035.06;5072482;28;20223;-73
2023/03/20 06:55:15;;;;;;;3.97;3.77;;;;;;;9.09;100.00;97033.31;5056367;28;20227;-74
2023/03/20 06:57:41;;;;;;;4.70;4.50;;;;;;;9.12;100.00;97038.13;5079242;28;20202;-74
2023/03/20 07:00:08;;;;;;;5.17;4.97;;;;;;;9.28;100.00;97036.81;5070277;28;20173;-74
2023/03/20 07:02:33;;;;;;;5.37;5.07;;;;;;;9.30;100.00;97033.00;5094370;28;20229;-74
2023/03/20 07:04:58;;;;;;;4.27;4.07;;;;;;;9.42;100.00;97040.94;5061444;28;20629;-75
2023/03/20 07:07:24;;;;;;;4.30;4.10;;;;;;;9.57;100.00;97042.25;5096308;28;20184;-74
2023/03/20 07:09:49;;;;;;;4.37;4.17;;;;;;;9.54;100.00;97047.06;5096481;28;20188;-74
2023/03/20 07:12:18;;;;;;;4.03;3.83;;;;;;;10.07;100.00;97049.25;5080696;28;20189;-74
2023/03/20 07:14:44;;;;;;;46.27;43.03;;;;;;;10.13;100.00;97043.94;5089865;28;20580;-72
2023/03/20 07:17:09;;;;;;;4.27;4.07;;;;;;;10.08;100.00;97043.81;5096070;28;20193;-74
2023/03/20 07:19:35;;;;;;;3.40;3.20;;;;;;;10.44;100.00;97053.50;5096144;28;20204;-73
2023/03/20 07:22:04;;;;;;;4.07;3.77;;;;;;;10.36;100.00;97052.00;5082770;28;20181;-71
2023/03/20 07:24:30;;;;;;;4.60;4.40;;;;;;;10.28;100.00;97056.72;5087181;28;20192;-72
2023/03/20 07:26:55;;;;;;;4.17;3.90;;;;;;;10.06;100.00;97064.16;5077765;28;20229;-72
2023/03/20 07:29:21;;;;;;;4.00;3.80;;;;;;;10.20;100.00;97064.84;5095588;28;20187;-72
2023/03/20 07:31:46;;;;;;;3.90;3.70;;;;;;;9.92;100.00;97073.13;5094157;28;20209;-74
2023/03/20 07:34:12;;;;;;;8.00;4.40;;;;;;;10.12;100.00;97072.97;5070948;28;20174;-72
2023/03/20 07:36:37;;;;;;;5.70;5.40;;;;;;;9.91;100.00;97074.19;5082646;28;20188;-72
2023/03/20 07:39:03;;;;;;;5.10;4.90;;;;;;;9.70;100.00;97077.94;5085654;28;20285;-72
2023/03/20 07:41:28;;;;;;;5.90;5.60;;;;;;;9.75;100.00;97074.72;5082831;28;20520;-72
2023/03/20 07:43:53;;;;;;;4.53;4.23;;;;;;;9.74;100.00;97070.50;5075697;28;20585;-72
2023/03/20 07:46:19;;;;;;;4.00;3.77;;;;;;;9.73;100.00;97068.88;5078883;28;20176;-73
2023/03/20 07:48:44;;;;;;;4.10;3.90;;;;;;;9.90;100.00;97069.94;5093587;28;20191;-72
2023/03/20 07:51:10;;;;;;;4.07;3.87;;;;;;;10.12;100.00;97070.34;5090042;28;20268;-73
2023/03/20 07:53:35;;;;;;;4.57;4.37;;;;;;;10.38;100.00;97070.91;5076095;28;20210;-73
2023/03/20 07:56:01;;;;;;;5.00;4.70;;;;;;;10.29;100.00;97072.22;5077120;28;20256;-74
2023/03/20 07:58:27;;;;;;;4.57;4.27;;;;;;;10.58;100.00;97068.09;5059199;28;20201;-73
2023/03/20 08:00:52;;;;;;;3.87;3.67;;;;;;;10.52;100.00;97068.97;5073317;28;20208;-73
2023/03/20 08:03:17;;;;;;;12.07;5.47;;;;;;;10.55;100.00;97062.47;5075653;28;20201;-73
2023/03/20 08:05:43;;;;;;;16.70;5.13;;;;;;;10.68;100.00;97068.38;5074650;28;20220;-73
2023/03/20 08:08:08;;;;;;;5.33;5.10;;;;;;;11.06;100.00;97064.66;5075509;28;20193;-73
2023/03/20 08:10:33;;;;;;;5.93;5.53;;;;;;;11.25;100.00;97061.78;5093156;28;20181;-73
2023/03/20 08:12:59;;;;;;;3.77;3.47;;;;;;;11.07;100.00;97071.50;5095262;28;20164;-73
2023/03/20 08:15:24;;;;;;;14.90;14.20;;;;;;;11.30;100.00;97060.28;5093725;28;20256;-73
2023/03/20 08:17:50;;;;;;;16.60;15.43;;;;;;;11.52;100.00;97071.88;5074848;28;20250;-73
2023/03/20 08:20:16;;;;;;;10.73;9.93;;;;;;;11.67;100.00;97067.00;5074862;28;20249;-73
2023/03/20 08:22:43;;;;;;;5.73;5.50;;;;;;;11.52;100.00;97066.63;5074915;28;20185;-74
2023/03/20 08:25:10;;;;;;;7.00;6.63;;;;;;;11.45;100.00;97065.91;5075682;28;20189;-73
2023/03/20 08:27:37;;;;;;;5.90;5.50;;;;;;;11.02;100.00;97074.00;5094790;28;20158;-73
2023/03/20 08:30:03;;;;;;;4.60;4.40;;;;;;;11.08;100.00;97081.78;5086297;28;20209;-73
2023/03/20 08:32:29;;;;;;;4.20;4.00;;;;;;;10.82;100.00;97080.28;5074153;28;20185;-74
2023/03/20 08:34:54;;;;;;;3.93;3.73;;;;;;;10.96;100.00;97074.88;5056103;28;20258;-73
2023/03/20 08:37:20;;;;;;;4.50;4.30;;;;;;;11.16;100.00;97078.03;5073990;28;20201;-73
2023/03/20 08:39:46;;;;;;;4.50;4.30;;;;;;;11.29;100.00;97071.81;5072934;28;20700;-73
2023/03/20 08:42:11;;;;;;;3.70;3.57;;;;;;;11.16;100.00;97084.09;5074158;28;20648;-73
2023/03/20 08:44:37;;;;;;;4.20;4.00;;;;;;;11.30;100.00;97074.22;5073395;28;20178;-73
2023/03/20 08:47:04;;;;;;;4.07;3.77;;;;;;;11.48;100.00;97071.50;5073694;28;20207;-73
2023/03/20 08:49:30;;;;;;;5.67;5.27;;;;;;;11.81;98.31;97073.69;5073681;28;21980;-73
2023/03/20 08:51:55;;;;;;;5.13;4.73;;;;;;;11.77;98.71;97077.75;5074123;28;20189;-73
2023/03/20 08:54:21;;;;;;;13.27;12.57;;;;;;;11.90;96.07;97074.13;5074110;28;20302;-75
2023/03/20 08:56:46;;;;;;;16.83;15.97;;;;;;;11.90;95.53;97076.75;5073417;28;20182;-73
2023/03/20 08:59:11;;;;;;;19.60;18.57;;;;;;;11.93;96.38;97065.78;5073009;28;20205;-73
2023/03/20 09:01:37;;;;;;;22.87;21.67;;;;;;;12.29;94.01;97073.44;5083868;28;20256;-73
2023/03/20 09:04:03;;;;;;;20.87;19.70;;;;;;;12.39;92.41;97073.66;5094039;28;20204;-73
2023/03/20 09:06:28;;;;;;;12.67;11.93;;;;;;;12.23;91.89;97063.84;5077443;28;20189;-73
2023/03/20 09:08:56;;;;;;;10.23;9.57;;;;;;;12.24;92.75;97068.06;5056284;28;20678;-73
2023/03/20 09:11:21;;;;;;;8.20;7.80;;;;;;;12.59;90.19;97061.97;5074051;28;20202;-73
2023/03/20 09:13:47;;;;;;;4.77;4.57;;;;;;;12.71;89.38;97068.78;5090098;28;20264;-73
2023/03/20 09:16:12;;;;;;;5.50;5.20;;;;;;;12.58;89.71;97076.16;5093863;28;20180;-73
2023/03/20 09:18:37;;;;;;;7.13;6.83;;;;;;;12.86;87.67;97084.88;5093121;28;20208;-72
2023/03/20 09:21:03;;;;;;;11.20;10.60;;;;;;;13.13;85.25;97081.72;5093830;28;20204;-73
2023/03/20 09:23:29;;;;;;;16.37;15.40;;;;;;;13.24;83.37;97080.88;5094221;28;20195;-73
2023/03/20 09:25:54;;;;;;;31.57;29.97;;;;;;;13.17;83.83;97086.28;5080396;28;20217;-73
2023/03/20 09:28:19;;;;;;;22.97;21.83;;;;;;;13.20;84.43;97088.47;5074581;28;20173;-74
2023/03/20 09:30:45;;;;;;;11.20;10.50;;;;;;;13.15;83.10;97087.56;5055607;28;20193;-73
2023/03/20 09:33:11;;;;;;;12.40;11.57;;;;;;;13.09;80.62;97085.84;5083184;28;20177;-73
2023/03/20 09:35:36;;;;;;;16.57;15.67;;;;;;;12.85;80.67;97078.03;5089438;28;20184;-72
2023/03/20 09:38:02;;;;;;;24.23;23.03;;;;;;;12.63;81.16;97078.88;5072635;28;20205;-73
2023/03/20 09:40:48;;;;;;;19.17;18.23;;;;;;;12.88;80.46;97082.81;5072773;28;20192;-73
2023/03/20 09:43:47;;;;;;;23.10;21.97;;;;;;;12.83;80.70;97079.28;5089418;28;20236;-73
2023/03/20 09:46:33;;;;;;;33.27;31.57;;;;;;;13.17;79.47;97088.13;5085097;28;20325;-72
2023/03/20 09:49:16;;;;;;;18.97;17.93;;;;;;;13.05;78.88;97085.50;5073171;28;20538;-72
2023/03/20 09:51:41;;;;;;;13.30;12.65;;;;;;;13.01;77.05;97081.75;5063434;28;20188;-73
2023/03/20 09:54:19;;;;;;;15.07;14.13;;;;;;;13.11;77.07;97081.13;5092316;28;20667;-73
2023/03/20 09:56:44;;;;;;;16.47;15.63;;;;;;;12.76;78.20;97082.03;5090773;28;20252;-72
2023/03/20 09:59:15;;;;;;;29.30;27.80;;;;;;;13.07;78.60;97077.38;5079584;28;20296;-72
2023/03/20 10:01:51;;;;;;;18.53;17.53;;;;;;;13.08;77.81;97073.72;5077023;28;20184;-72
2023/03/20 10:04:18;;;;;;;6.33;6.03;;;;;;;13.09;76.74;97078.75;5073207;28;20172;-72
2023/03/20 10:06:43;;;;;;;25.97;24.67;;;;;;;13.20;76.96;97082.41;5072677;28;20173;-73
2023/03/20 10:09:32;;;;;;;10.23;9.73;;;;;;;13.34;75.53;97083.69;5072483;28;20630;-72
2023/03/20 10:12:07;;;;;;;7.60;7.20;;;;;;;13.28;75.50;97085.44;5072552;28;20157;-72
2023/03/20 10:15:02;;;;;;;14.37;13.57;;;;;;;13.04;75.18;97091.03;5072586;28;20188;-72
2023/03/20 10:18:05;;;;;;;62.97;59.60;;;;;;;12.91;77.29;97090.25;5054519;28;20209;-72
2023/03/20 10:20:39;;;;;;;56.83;53.90;;;;;;;12.90;78.51;97082.59;5052644;28;20267;-72
2023/03/20 10:23:26;;;;;;;60.72;57.45;;;;;;;12.83;78.83;97087.97;5052963;28;20181;-72
2023/03/20 10:26:22;;;;;;;65.80;62.40;;;;;;;12.70;79.18;97090.88;5058805;28;20289;-71
2023/03/20 10:28:59;;;;;;;56.13;53.20;;;;;;;13.02;78.14;97090.44;5047245;28;20200;-71
2023/03/20 10:31:43;;;;;;;66.80;63.20;;;;;;;13.22;77.38;97094.28;5071218;28;20176;-71
2023/03/20 10:34:43;;;;;;;70.00;66.30;;;;;;;12.96;77.46;97086.91;5088226;28;20675;-71
2023/03/20 10:37:27;;;;;;;79.00;74.73;;;;;;;13.00;75.40;97093.28;5078277;28;20235;-72
2023/03/20 10:40:20;;;;;;;78.57;74.37;;;;;;;12.57;77.50;97091.13;5058136;28;20173;-72
2023/03/20 10:42:47;;;;;;;60.27;57.17;;;;;;;12.77;77.18;97093.34;5072966;28;20173;-71
2023/03/20 10:45:29;;;;;;;27.23;25.63;;;;;;;12.72;77.74;97088.81;5073554;28;20185;-71
2023/03/20 10:47:56;;;;;;;22.37;21.17;;;;;;;12.77;78.42;97099.41;5091951;28;20607;-71
2023/03/20 10:50:28;;;;;;;33.53;31.60;;;;;;;12.48;78.02;97093.28;5091530;28;20188;-72
2023/03/20 10:52:55;;;;;;;23.23;22.00;;;;;;;12.31;77.76;97084.53;5086342;28;20208;-71
2023/03/20 10:55:27;;;;;;;12.50;7.20;;;;;;;12.32;78.88;97083.47;5054439;28;20200;-71
2023/03/20 10:58:17;;;;;;;9.10;6.87;;;;;;;12.20;80.61;97076.66;5060399;28;20193;-71
2023/03/20 11:00:42;;;;;;;7.57;7.03;;;;;;;12.22;80.46;97078.00;5081794;28;20655;-73
2023/03/20 11:03:19;;;;;;;5.80;5.40;;;;;;;12.15;80.07;97079.19;5082763;28;20264;-72
2023/03/20 11:05:45;;;;;;;6.43;6.13;;;;;;;11.97;80.90;97069.56;5072524;28;20265;-72
2023/03/20 11:08:13;;;;;;;6.23;5.83;;;;;;;11.91;80.98;97076.53;5072407;28;20182;-72
2023/03/20 11:10:41;;;;;;;7.07;6.67;;;;;;;12.19;81.52;97082.94;5072101;28;20634;-73
2023/03/20 11:13:30;;;;;;;8.73;8.13;;;;;;;12.25;80.74;97074.94;5072525;28;20177;-72
2023/03/20 11:16:06;;;;;;;8.57;7.73;;;;;;;12.15;79.95;97084.44;5071920;28;20634;-73
2023/03/20 11:18:31;;;;;;;11.57;10.00;;;;;;;12.38;79.70;97077.31;5071719;28;20193;-73
2023/03/20 11:20:57;;;;;;;4.40;4.00;;;;;;;12.32;81.18;97074.78;5072177;28;20231;-72
2023/03/20 11:23:25;;;;;;;38.20;35.83;;;;;;;12.23;83.76;97076.97;5072221;28;20177;-72
2023/03/20 11:25:59;;;;;;;43.70;41.40;;;;;;;12.11;86.96;97070.13;5078246;28;20225;-73
2023/03/20 11:28:35;;;;;;;16.73;15.83;;;;;;;11.84;90.62;97081.09;5084534;28;20195;-75
2023/03/20 11:31:13;;;;;;;4.47;4.17;;;;;;;11.94;91.34;97083.94;5072404;28;20533;-74
2023/03/20 11:33:43;;;;;;;5.60;5.30;;;;;;;12.07;90.22;97077.69;5082487;28;20176;-75
2023/03/20 11:36:28;;;;;;;13.73;12.93;;;;;;;11.82;89.16;97079.69;5051030;28;20180;-72
2023/03/20 11:39:14;;;;;;;8.63;7.90;;;;;;;11.80;90.71;97084.41;5071182;28;20278;-73
2023/03/20 11:41:49;;;;;;;7.37;6.87;;;;;;;11.73;89.40;97081.88;5088236;28;20176;-72